sensor_id;sensor_type;location;lat;lon;timestamp;pressure;altitude;pressure_sealevel;temperature;humidity
34979;BME280;21185;50.978;13.720;2023-04-07T00:01:13;98491.66;;;5.21;49.14
34979;BME280;21185;50.978;13.720;2023-04-07T00:06:15;98488.66;;;5.16;49.22
34979;BME280;21185;50.978;13.720;2023-04-07T00:11:17;98485.75;;;5.09;49.34
34979;BME280;21185;50.978;13.720;2023-04-07T00:16:19;98482.97;;;5.01;49.48
34979;BME280;21185;50.978;13.720;2023-04-07T00:21:23;98479.16;;;4.96;49.62
34979;BME280;21185;50.978;13.720;2023-04-07T00:26:25;98485.34;;;4.93;49.44
34979;BME280;21185;50.978;13.720;2023-04-07T00:31:32;98486.53;;;4.89;49.56
34979;BME280;21185;50.978;13.720;2023-04-07T00:36:34;98481.88;;;4.83;49.42
34979;BME280;21185;50.978;13.720;2023-04-07T00:41:37;98478.84;;;4.78;49.52
34979;BME280;21185;50.978;13.720;2023-04-07T00:46:40;98472.19;;;4.75;49.60
34979;BME280;21185;50.978;13.720;2023-04-07T00:51:42;98467.97;;;4.74;49.93
34979;BME280;21185;50.978;13.720;2023-04-07T00:56:45;98463.91;;;4.72;49.43
34979;BME280;21185;50.978;13.720;2023-04-07T01:01:54;98456.44;;;4.69;49.84
34979;BME280;21185;50.978;13.720;2023-04-07T01:07:05;98452.34;;;4.66;49.67
34979;BME280;21185;50.978;13.720;2023-04-07T01:12:35;98448.50;;;4.61;49.95
34979;BME280;21185;50.978;13.720;2023-04-07T01:17:56;98441.97;;;4.57;49.71
34979;BME280;21185;50.978;13.720;2023-04-07T01:23:03;98444.78;;;4.53;49.92
34979;BME280;21185;50.978;13.720;2023-04-07T01:33:30;98431.97;;;4.42;49.74
34979;BME280;21185;50.978;13.720;2023-04-07T01:38:33;98428.13;;;4.37;49.78
34979;BME280;21185;50.978;13.720;2023-04-07T01:43:36;98427.53;;;4.33;49.87
34979;BME280;21185;50.978;13.720;2023-04-07T01:48:41;98424.38;;;4.30;49.93
34979;BME280;21185;50.978;13.720;2023-04-07T01:53:47;98416.78;;;4.28;50.17
34979;BME280;21185;50.978;13.720;2023-04-07T01:58:49;98428.13;;;4.26;50.14
34979;BME280;21185;50.978;13.720;2023-04-07T02:09:29;98415.63;;;4.21;50.14
34979;BME280;21185;50.978;13.720;2023-04-07T02:14:32;98411.44;;;4.20;49.97
34979;BME280;21185;50.978;13.720;2023-04-07T02:19:41;98405.59;;;4.18;50.23
34979;BME280;21185;50.978;13.720;2023-04-07T02:24:44;98402.34;;;4.16;50.42
34979;BME280;21185;50.978;13.720;2023-04-07T02:29:46;98404.31;;;4.12;50.21
34979;BME280;21185;50.978;13.720;2023-04-07T02:34:48;98399.31;;;4.11;50.42
34979;BME280;21185;50.978;13.720;2023-04-07T02:39:50;98404.69;;;4.08;50.37
34979;BME280;21185;50.978;13.720;2023-04-07T02:44:53;98396.97;;;4.08;50.45
34979;BME280;21185;50.978;13.720;2023-04-07T02:49:55;98394.41;;;4.08;50.54
34979;BME280;21185;50.978;13.720;2023-04-07T02:54:57;98395.22;;;4.08;50.40
34979;BME280;21185;50.978;13.720;2023-04-07T03:00:01;98388.47;;;4.07;50.57
34979;BME280;21185;50.978;13.720;2023-04-07T03:05:19;98395.34;;;4.07;50.18
34979;BME280;21185;50.978;13.720;2023-04-07T03:10:22;98393.94;;;4.03;50.48
34979;BME280;21185;50.978;13.720;2023-04-07T03:15:24;98382.97;;;4.01;50.64
34979;BME280;21185;50.978;13.720;2023-04-07T03:20:26;98381.59;;;3.97;50.74
34979;BME280;21185;50.978;13.720;2023-04-07T03:25:32;98378.56;;;3.92;50.96
34979;BME280;21185;50.978;13.720;2023-04-07T03:30:36;98370.16;;;3.89;50.94
34979;BME280;21185;50.978;13.720;2023-04-07T03:35:38;98371.44;;;3.84;50.99
34979;BME280;21185;50.978;13.720;2023-04-07T03:40:42;98373.41;;;3.80;51.04
34979;BME280;21185;50.978;13.720;2023-04-07T03:45:44;98365.25;;;3.75;50.87
34979;BME280;21185;50.978;13.720;2023-04-07T03:50:46;98368.75;;;3.74;51.08
34979;BME280;21185;50.978;13.720;2023-04-07T03:55:51;98368.75;;;3.74;51.19
34979;BME280;21185;50.978;13.720;2023-04-07T04:01:15;98372.94;;;3.75;50.97
34979;BME280;21185;50.978;13.720;2023-04-07T04:06:20;98371.31;;;3.74;51.12
34979;BME280;21185;50.978;13.720;2023-04-07T04:11:23;98365.38;;;3.74;51.05
34979;BME280;21185;50.978;13.720;2023-04-07T04:16:34;98370.50;;;3.74;51.09
34979;BME280;21185;50.978;13.720;2023-04-07T04:21:43;98374.00;;;3.73;51.02
34979;BME280;21185;50.978;13.720;2023-04-07T04:26:46;98373.88;;;3.74;50.97
34979;BME280;21185;50.978;13.720;2023-04-07T04:31:48;98379.13;;;3.73;51.04
34979;BME280;21185;50.978;13.720;2023-04-07T04:36:51;98378.31;;;3.72;51.39
34979;BME280;21185;50.978;13.720;2023-04-07T04:41:53;98371.56;;;3.71;51.34
34979;BME280;21185;50.978;13.720;2023-04-07T04:47:04;98367.34;;;3.70;51.31
34979;BME280;21185;50.978;13.720;2023-04-07T04:52:07;98373.41;;;3.69;51.16
34979;BME280;21185;50.978;13.720;2023-04-07T04:57:15;98379.47;;;3.68;51.24
34979;BME280;21185;50.978;13.720;2023-04-07T05:02:17;98378.78;;;3.66;51.27
34979;BME280;21185;50.978;13.720;2023-04-07T05:07:19;98384.72;;;3.67;51.29
34979;BME280;21185;50.978;13.720;2023-04-07T05:12:21;98378.56;;;3.69;51.40
34979;BME280;21185;50.978;13.720;2023-04-07T05:17:31;98375.63;;;3.74;51.48
34979;BME280;21185;50.978;13.720;2023-04-07T05:22:35;98372.72;;;3.78;51.62
34979;BME280;21185;50.978;13.720;2023-04-07T05:27:40;98374.94;;;3.83;51.69
34979;BME280;21185;50.978;13.720;2023-04-07T05:32:47;98380.41;;;3.89;51.75
34979;BME280;21185;50.978;13.720;2023-04-07T05:37:58;98376.56;;;3.95;51.85
34979;BME280;21185;50.978;13.720;2023-04-07T05:43:01;98369.22;;;4.02;51.81
34979;BME280;21185;50.978;13.720;2023-04-07T05:48:05;98367.78;;;4.09;52.06
34979;BME280;21185;50.978;13.720;2023-04-07T05:53:17;98368.25;;;4.14;52.20
34979;BME280;21185;50.978;13.720;2023-04-07T05:58:20;98367.09;;;4.18;52.31
34979;BME280;21185;50.978;13.720;2023-04-07T06:03:25;98368.59;;;4.20;52.38
34979;BME280;21185;50.978;13.720;2023-04-07T06:08:39;98367.53;;;4.23;52.66
34979;BME280;21185;50.978;13.720;2023-04-07T06:13:41;98366.25;;;4.29;52.72
34979;BME280;21185;50.978;13.720;2023-04-07T06:18:43;98366.34;;;4.38;52.94
34979;BME280;21185;50.978;13.720;2023-04-07T06:23:44;98371.06;;;4.54;52.84
34979;BME280;21185;50.978;13.720;2023-04-07T06:28:46;98362.47;;;4.76;52.69
34979;BME280;21185;50.978;13.720;2023-04-07T06:33:48;98361.19;;;5.02;52.68
34979;BME280;21185;50.978;13.720;2023-04-07T06:38:51;98365.31;;;5.14;52.79
34979;BME280;21185;50.978;13.720;2023-04-07T06:43:52;98369.25;;;5.18;52.91
34979;BME280;21185;50.978;13.720;2023-04-07T06:48:54;98367.97;;;5.34;52.80
34979;BME280;21185;50.978;13.720;2023-04-07T06:53:57;98363.88;;;5.52;52.83
34979;BME280;21185;50.978;13.720;2023-04-07T06:58:59;98358.81;;;5.71;52.73
34979;BME280;21185;50.978;13.720;2023-04-07T07:04:01;98363.00;;;5.93;52.40
34979;BME280;21185;50.978;13.720;2023-04-07T07:09:03;98357.31;;;5.99;52.45
34979;BME280;21185;50.978;13.720;2023-04-07T07:14:05;98367.13;;;6.15;52.37
34979;BME280;21185;50.978;13.720;2023-04-07T07:19:07;98363.91;;;6.32;52.02
34979;BME280;21185;50.978;13.720;2023-04-07T07:24:10;98370.72;;;6.53;51.89
34979;BME280;21185;50.978;13.720;2023-04-07T07:29:12;98367.75;;;6.67;51.58
34979;BME280;21185;50.978;13.720;2023-04-07T07:34:14;98377.78;;;6.89;51.54
34979;BME280;21185;50.978;13.720;2023-04-07T07:39:16;98382.13;;;7.08;51.42
34979;BME280;21185;50.978;13.720;2023-04-07T07:44:18;98383.84;;;7.27;51.79
34979;BME280;21185;50.978;13.720;2023-04-07T07:49:21;98387.50;;;7.43;51.28
34979;BME280;21185;50.978;13.720;2023-04-07T07:54:23;98389.59;;;7.67;50.96
34979;BME280;21185;50.978;13.720;2023-04-07T07:59:25;98391.44;;;7.85;50.62
34979;BME280;21185;50.978;13.720;2023-04-07T08:04:27;98387.06;;;7.95;50.19
34979;BME280;21185;50.978;13.720;2023-04-07T08:09:29;98395.63;;;7.95;50.15
34979;BME280;21185;50.978;13.720;2023-04-07T08:14:33;98399.34;;;7.83;50.05
34979;BME280;21185;50.978;13.720;2023-04-07T08:19:35;98403.06;;;7.71;49.70
34979;BME280;21185;50.978;13.720;2023-04-07T08:24:37;98405.91;;;7.68;49.97
34979;BME280;21185;50.978;13.720;2023-04-07T08:29:39;98410.13;;;7.69;49.96
34979;BME280;21185;50.978;13.720;2023-04-07T08:34:41;98415.16;;;7.70;50.06
34979;BME280;21185;50.978;13.720;2023-04-07T08:39:43;98415.53;;;7.75;49.90
34979;BME280;21185;50.978;13.720;2023-04-07T08:44:47;98411.88;;;7.78;49.78
34979;BME280;21185;50.978;13.720;2023-04-07T08:49:51;98401.53;;;7.78;49.57
34979;BME280;21185;50.978;13.720;2023-04-07T08:54:53;98401.41;;;7.79;49.73
34979;BME280;21185;50.978;13.720;2023-04-07T08:59:58;98405.03;;;7.87;49.31
34979;BME280;21185;50.978;13.720;2023-04-07T09:05:07;98403.00;;;7.90;49.26
34979;BME280;21185;50.978;13.720;2023-04-07T09:10:09;98409.63;;;7.93;49.36
34979;BME280;21185;50.978;13.720;2023-04-07T09:15:11;98405.00;;;7.96;49.00
34979;BME280;21185;50.978;13.720;2023-04-07T09:20:13;98399.66;;;8.07;49.25
34979;BME280;21185;50.978;13.720;2023-04-07T09:25:20;98400.78;;;8.23;48.97
34979;BME280;21185;50.978;13.720;2023-04-07T09:30:29;98399.25;;;8.39;48.76
34979;BME280;21185;50.978;13.720;2023-04-07T09:35:31;98387.88;;;8.50;48.74
34979;BME280;21185;50.978;13.720;2023-04-07T09:40:41;98391.06;;;8.62;48.56
34979;BME280;21185;50.978;13.720;2023-04-07T09:45:43;98381.09;;;8.67;48.53
34979;BME280;21185;50.978;13.720;2023-04-07T09:50:45;98386.50;;;8.73;48.64
34979;BME280;21185;50.978;13.720;2023-04-07T09:55:50;98386.72;;;8.80;48.52
34979;BME280;21185;50.978;13.720;2023-04-07T10:00:53;98387.00;;;8.77;48.66
34979;BME280;21185;50.978;13.720;2023-04-07T10:05:55;98386.13;;;8.68;48.53
34979;BME280;21185;50.978;13.720;2023-04-07T10:10:59;98384.50;;;8.67;48.56
34979;BME280;21185;50.978;13.720;2023-04-07T10:16:04;98374.66;;;8.71;48.43
34979;BME280;21185;50.978;13.720;2023-04-07T10:21:07;98380.78;;;8.70;48.43
34979;BME280;21185;50.978;13.720;2023-04-07T10:26:11;98392.53;;;8.64;48.27
34979;BME280;21185;50.978;13.720;2023-04-07T10:31:16;98384.63;;;8.66;48.38
34979;BME280;21185;50.978;13.720;2023-04-07T10:36:20;98380.06;;;8.77;47.97
34979;BME280;21185;50.978;13.720;2023-04-07T10:41:36;98380.50;;;8.91;47.91
34979;BME280;21185;50.978;13.720;2023-04-07T10:57:09;98368.69;;;9.32;47.35
34979;BME280;21185;50.978;13.720;2023-04-07T11:07:14;98378.53;;;9.54;46.94
34979;BME280;21185;50.978;13.720;2023-04-07T11:12:23;98378.03;;;9.51;46.80
34979;BME280;21185;50.978;13.720;2023-04-07T11:17:26;98370.97;;;9.61;46.97
34979;BME280;21185;50.978;13.720;2023-04-07T11:22:28;98364.25;;;9.76;46.54
34979;BME280;21185;50.978;13.720;2023-04-07T11:27:33;98364.63;;;9.89;46.73
34979;BME280;21185;50.978;13.720;2023-04-07T11:32:35;98373.69;;;9.85;46.29
34979;BME280;21185;50.978;13.720;2023-04-07T11:37:37;98363.47;;;9.84;46.15
34979;BME280;21185;50.978;13.720;2023-04-07T11:42:39;98363.84;;;9.97;45.88
34979;BME280;21185;50.978;13.720;2023-04-07T11:47:41;98348.16;;;10.06;45.79
34979;BME280;21185;50.978;13.720;2023-04-07T11:52:47;98357.44;;;10.17;45.58
34979;BME280;21185;50.978;13.720;2023-04-07T11:57:49;98360.34;;;10.14;45.33
34979;BME280;21185;50.978;13.720;2023-04-07T12:02:54;98367.31;;;10.14;45.45
34979;BME280;21185;50.978;13.720;2023-04-07T12:07:57;98352.22;;;10.09;44.88
34979;BME280;21185;50.978;13.720;2023-04-07T12:12:59;98355.31;;;10.13;44.97
34979;BME280;21185;50.978;13.720;2023-04-07T12:18:03;98352.91;;;10.19;44.75
34979;BME280;21185;50.978;13.720;2023-04-07T12:23:05;98359.75;;;10.20;44.70
34979;BME280;21185;50.978;13.720;2023-04-07T12:28:07;98351.34;;;10.26;44.30
34979;BME280;21185;50.978;13.720;2023-04-07T12:33:08;98350.38;;;10.44;44.41
34979;BME280;21185;50.978;13.720;2023-04-07T12:38:11;98351.38;;;10.51;44.30
34979;BME280;21185;50.978;13.720;2023-04-07T12:43:13;98355.59;;;10.60;43.99
34979;BME280;21185;50.978;13.720;2023-04-07T12:48:14;98350.41;;;10.60;43.68
34979;BME280;21185;50.978;13.720;2023-04-07T12:53:17;98345.38;;;10.58;43.70
34979;BME280;21185;50.978;13.720;2023-04-07T12:58:19;98346.34;;;10.49;43.89
34979;BME280;21185;50.978;13.720;2023-04-07T13:03:21;98351.69;;;10.40;44.06
34979;BME280;21185;50.978;13.720;2023-04-07T13:08:23;98352.66;;;10.30;44.13
34979;BME280;21185;50.978;13.720;2023-04-07T13:13:26;98360.59;;;10.29;44.29
34979;BME280;21185;50.978;13.720;2023-04-07T13:18:28;98356.38;;;10.28;44.10
34979;BME280;21185;50.978;13.720;2023-04-07T13:23:30;98361.56;;;10.36;44.19
34979;BME280;21185;50.978;13.720;2023-04-07T13:28:52;98354.59;;;10.45;43.96
34979;BME280;21185;50.978;13.720;2023-04-07T13:33:54;98349.25;;;10.46;44.04
34979;BME280;21185;50.978;13.720;2023-04-07T13:38:56;98352.66;;;10.55;44.02
34979;BME280;21185;50.978;13.720;2023-04-07T13:43:58;98338.25;;;10.68;43.94
34979;BME280;21185;50.978;13.720;2023-04-07T13:49:01;98341.66;;;10.85;43.81
34979;BME280;21185;50.978;13.720;2023-04-07T13:54:04;98326.41;;;10.90;44.26
34979;BME280;21185;50.978;13.720;2023-04-07T13:59:06;98326.75;;;10.87;44.34
34979;BME280;21185;50.978;13.720;2023-04-07T14:04:09;98328.03;;;10.75;44.57
34979;BME280;21185;50.978;13.720;2023-04-07T14:09:11;98332.72;;;10.71;44.52
34979;BME280;21185;50.978;13.720;2023-04-07T14:14:13;98330.94;;;10.72;44.41
34979;BME280;21185;50.978;13.720;2023-04-07T14:19:15;98330.31;;;10.70;44.46
34979;BME280;21185;50.978;13.720;2023-04-07T14:24:17;98325.13;;;10.70;44.34
34979;BME280;21185;50.978;13.720;2023-04-07T14:29:19;98325.59;;;10.74;44.31
34979;BME280;21185;50.978;13.720;2023-04-07T14:34:21;98325.59;;;10.74;44.23
34979;BME280;21185;50.978;13.720;2023-04-07T14:39:23;98319.75;;;10.80;44.30
34979;BME280;21185;50.978;13.720;2023-04-07T14:44:26;98325.13;;;10.86;44.25
34979;BME280;21185;50.978;13.720;2023-04-07T14:49:29;98320.09;;;10.93;43.76
34979;BME280;21185;50.978;13.720;2023-04-07T14:54:31;98320.56;;;10.88;44.18
34979;BME280;21185;50.978;13.720;2023-04-07T14:59:33;98325.94;;;10.87;44.34
34979;BME280;21185;50.978;13.720;2023-04-07T15:04:35;98325.59;;;10.90;44.30
34979;BME280;21185;50.978;13.720;2023-04-07T15:09:38;98327.38;;;10.89;44.20
34979;BME280;21185;50.978;13.720;2023-04-07T15:14:39;98325.44;;;10.83;44.40
34979;BME280;21185;50.978;13.720;2023-04-07T15:19:41;98317.50;;;10.77;44.60
34979;BME280;21185;50.978;13.720;2023-04-07T15:24:45;98318.28;;;10.69;44.63
34979;BME280;21185;50.978;13.720;2023-04-07T15:29:47;98327.53;;;10.63;44.70
34979;BME280;21185;50.978;13.720;2023-04-07T15:34:49;98323.63;;;10.51;44.44
34979;BME280;21185;50.978;13.720;2023-04-07T15:39:51;98323.63;;;10.43;44.49
34979;BME280;21185;50.978;13.720;2023-04-07T15:44:53;98326.41;;;10.33;44.88
34979;BME280;21185;50.978;13.720;2023-04-07T15:49:55;98330.59;;;10.26;44.96
34979;BME280;21185;50.978;13.720;2023-04-07T15:54:57;98326.03;;;10.20;44.74
34979;BME280;21185;50.978;13.720;2023-04-07T15:59:59;98335.69;;;10.10;44.93
34979;BME280;21185;50.978;13.720;2023-04-07T16:05:01;98340.84;;;10.02;44.82
34979;BME280;21185;50.978;13.720;2023-04-07T16:10:04;98349.88;;;9.90;45.07
34979;BME280;21185;50.978;13.720;2023-04-07T16:15:09;98342.22;;;9.80;44.90
34979;BME280;21185;50.978;13.720;2023-04-07T16:20:12;98349.81;;;9.73;45.28
34979;BME280;21185;50.978;13.720;2023-04-07T16:25:17;98361.56;;;9.60;45.37
34979;BME280;21185;50.978;13.720;2023-04-07T16:30:19;98361.00;;;9.48;45.59
34979;BME280;21185;50.978;13.720;2023-04-07T16:35:21;98368.13;;;9.46;45.53
34979;BME280;21185;50.978;13.720;2023-04-07T16:40:23;98372.94;;;9.41;45.77
34979;BME280;21185;50.978;13.720;2023-04-07T16:45:26;98371.63;;;9.37;45.81
34979;BME280;21185;50.978;13.720;2023-04-07T16:50:27;98384.88;;;9.34;45.79
34979;BME280;21185;50.978;13.720;2023-04-07T16:55:29;98388.06;;;9.28;46.01
34979;BME280;21185;50.978;13.720;2023-04-07T17:00:31;98389.13;;;9.17;46.38
34979;BME280;21185;50.978;13.720;2023-04-07T17:05:33;98408.00;;;9.09;46.29
34979;BME280;21185;50.978;13.720;2023-04-07T17:10:35;98410.22;;;9.04;46.60
34979;BME280;21185;50.978;13.720;2023-04-07T17:15:37;98405.78;;;8.97;46.76
34979;BME280;21185;50.978;13.720;2023-04-07T17:20:39;98417.03;;;8.88;46.93
34979;BME280;21185;50.978;13.720;2023-04-07T17:25:41;98417.75;;;8.80;47.10
34979;BME280;21185;50.978;13.720;2023-04-07T17:30:43;98425.28;;;8.73;47.04
34979;BME280;21185;50.978;13.720;2023-04-07T17:35:44;98439.34;;;8.71;46.96
34979;BME280;21185;50.978;13.720;2023-04-07T17:40:48;98444.13;;;8.66;47.22
34979;BME280;21185;50.978;13.720;2023-04-07T17:45:50;98449.88;;;8.60;47.52
34979;BME280;21185;50.978;13.720;2023-04-07T17:50:52;98458.75;;;8.57;47.63
34979;BME280;21185;50.978;13.720;2023-04-07T17:55:54;98465.47;;;8.50;47.79
34979;BME280;21185;50.978;13.720;2023-04-07T18:00:56;98467.53;;;8.47;47.81
34979;BME280;21185;50.978;13.720;2023-04-07T18:05:58;98470.91;;;8.47;48.01
34979;BME280;21185;50.978;13.720;2023-04-07T18:11:01;98476.09;;;8.47;47.81
34979;BME280;21185;50.978;13.720;2023-04-07T18:16:03;98476.09;;;8.47;47.90
34979;BME280;21185;50.978;13.720;2023-04-07T18:21:08;98492.44;;;8.48;47.94
34979;BME280;21185;50.978;13.720;2023-04-07T18:26:11;98489.97;;;8.46;48.19
34979;BME280;21185;50.978;13.720;2023-04-07T18:31:14;98497.88;;;8.44;48.47
34979;BME280;21185;50.978;13.720;2023-04-07T18:36:16;98496.25;;;8.43;48.37
34979;BME280;21185;50.978;13.720;2023-04-07T18:41:19;98504.69;;;8.46;48.67
34979;BME280;21185;50.978;13.720;2023-04-07T18:46:21;98510.66;;;8.46;48.80
34979;BME280;21185;50.978;13.720;2023-04-07T18:51:24;98512.59;;;8.44;48.87
34979;BME280;21185;50.978;13.720;2023-04-07T18:56:26;98517.91;;;8.42;49.03
34979;BME280;21185;50.978;13.720;2023-04-07T19:01:29;98515.97;;;8.44;49.34
34979;BME280;21185;50.978;13.720;2023-04-07T19:06:31;98526.31;;;8.44;49.43
34979;BME280;21185;50.978;13.720;2023-04-07T19:11:33;98523.34;;;8.39;49.67
34979;BME280;21185;50.978;13.720;2023-04-07T19:16:35;98530.03;;;8.32;50.02
34979;BME280;21185;50.978;13.720;2023-04-07T19:21:37;98531.41;;;8.27;50.24
34979;BME280;21185;50.978;13.720;2023-04-07T19:26:41;98532.66;;;8.13;50.61
34979;BME280;21185;50.978;13.720;2023-04-07T19:31:43;98539.47;;;8.04;50.93
34979;BME280;21185;50.978;13.720;2023-04-07T19:36:46;98538.56;;;7.96;51.48
34979;BME280;21185;50.978;13.720;2023-04-07T19:41:47;98554.91;;;7.77;52.45
34979;BME280;21185;50.978;13.720;2023-04-07T19:46:49;98546.75;;;7.62;53.24
34979;BME280;21185;50.978;13.720;2023-04-07T19:51:52;98551.66;;;7.56;53.38
34979;BME280;21185;50.978;13.720;2023-04-07T19:56:56;98545.25;;;7.50;53.73
34979;BME280;21185;50.978;13.720;2023-04-07T20:01:59;98552.31;;;7.48;54.14
34979;BME280;21185;50.978;13.720;2023-04-07T20:07:01;98557.06;;;7.43;54.47
34979;BME280;21185;50.978;13.720;2023-04-07T20:12:03;98559.53;;;7.44;54.50
34979;BME280;21185;50.978;13.720;2023-04-07T20:17:05;98549.88;;;7.46;54.61
34979;BME280;21185;50.978;13.720;2023-04-07T20:22:07;98552.31;;;7.48;54.58
34979;BME280;21185;50.978;13.720;2023-04-07T20:27:09;98553.81;;;7.51;54.80
34979;BME280;21185;50.978;13.720;2023-04-07T20:32:11;98554.91;;;7.48;54.97
34979;BME280;21185;50.978;13.720;2023-04-07T20:37:13;98556.94;;;7.44;55.24
34979;BME280;21185;50.978;13.720;2023-04-07T20:42:15;98551.91;;;7.43;55.63
34979;BME280;21185;50.978;13.720;2023-04-07T20:47:18;98547.56;;;7.43;55.81
34979;BME280;21185;50.978;13.720;2023-04-07T20:52:20;98543.75;;;7.47;55.80
34979;BME280;21185;50.978;13.720;2023-04-07T20:57:21;98548.94;;;7.47;55.94
34979;BME280;21185;50.978;13.720;2023-04-07T21:02:24;98545.38;;;7.48;56.15
34979;BME280;21185;50.978;13.720;2023-04-07T21:07:26;98541.19;;;7.47;56.02
34979;BME280;21185;50.978;13.720;2023-04-07T21:12:28;98548.66;;;7.41;56.28
34979;BME280;21185;50.978;13.720;2023-04-07T21:17:29;98542.94;;;7.37;56.50
34979;BME280;21185;50.978;13.720;2023-04-07T21:22:31;98551.22;;;7.41;56.58
34979;BME280;21185;50.978;13.720;2023-04-07T21:27:33;98552.19;;;7.40;56.75
34979;BME280;21185;50.978;13.720;2023-04-07T21:32:37;98540.91;;;7.41;56.72
34979;BME280;21185;50.978;13.720;2023-04-07T21:37:38;98545.38;;;7.39;56.84
34979;BME280;21185;50.978;13.720;2023-04-07T21:42:40;98534.25;;;7.38;57.06
34979;BME280;21185;50.978;13.720;2023-04-07T21:47:43;98535.34;;;7.36;57.07
34979;BME280;21185;50.978;13.720;2023-04-07T21:52:45;98544.44;;;7.40;57.06
34979;BME280;21185;50.978;13.720;2023-04-07T21:57:51;98539.97;;;7.42;57.19
34979;BME280;21185;50.978;13.720;2023-04-07T22:02:53;98539.97;;;7.42;57.24
34979;BME280;21185;50.978;13.720;2023-04-07T22:07:56;98540.22;;;7.39;57.41
34979;BME280;21185;50.978;13.720;2023-04-07T22:12:57;98544.72;;;7.37;57.36
34979;BME280;21185;50.978;13.720;2023-04-07T22:17:59;98549.47;;;7.32;57.67
34979;BME280;21185;50.978;13.720;2023-04-07T22:23:01;98545.38;;;7.29;57.64
34979;BME280;21185;50.978;13.720;2023-04-07T22:28:03;98547.16;;;7.29;57.87
34979;BME280;21185;50.978;13.720;2023-04-07T22:33:05;98540.22;;;7.29;58.17
34979;BME280;21185;50.978;13.720;2023-04-07T22:38:08;98544.56;;;7.29;58.05
34979;BME280;21185;50.978;13.720;2023-04-07T22:43:10;98543.88;;;7.27;58.32
34979;BME280;21185;50.978;13.720;2023-04-07T22:48:12;98546.75;;;7.24;58.21
34979;BME280;21185;50.978;13.720;2023-04-07T22:53:14;98549.44;;;7.22;58.23
34979;BME280;21185;50.978;13.720;2023-04-07T22:58:17;98550.53;;;7.20;58.83
34979;BME280;21185;50.978;13.720;2023-04-07T23:03:18;98557.88;;;7.14;58.73
34979;BME280;21185;50.978;13.720;2023-04-07T23:08:21;98552.97;;;7.11;59.10
34979;BME280;21185;50.978;13.720;2023-04-07T23:13:23;98559.88;;;7.11;59.18
34979;BME280;21185;50.978;13.720;2023-04-07T23:18:25;98561.94;;;7.07;59.05
34979;BME280;21185;50.978;13.720;2023-04-07T23:23:27;98550.25;;;7.03;59.31
34979;BME280;21185;50.978;13.720;2023-04-07T23:28:28;98553.47;;;6.96;60.20
34979;BME280;21185;50.978;13.720;2023-04-07T23:33:31;98553.47;;;6.96;60.04
34979;BME280;21185;50.978;13.720;2023-04-07T23:38:33;98547.25;;;6.98;60.22
34979;BME280;21185;50.978;13.720;2023-04-07T23:43:37;98543.97;;;6.96;60.37
34979;BME280;21185;50.978;13.720;2023-04-07T23:48:40;98545.75;;;6.96;60.23
34979;BME280;21185;50.978;13.720;2023-04-07T23:53:42;98543.03;;;6.97;60.55
34979;BME280;21185;50.978;13.720;2023-04-07T23:58:44;98542.91;;;6.99;60.36
